Meteo Giornale » Osservazioni meteo Canada » Churchill Man
ore: 21:00 - Osservazioni Meteo Churchill Man
Lat. 58° 44' N Lon. 94° 4' W Alt. 28 metri s.l.m.
10 °C
Coperto
Temp. 24 Ore
9 °C
17 °C
Est
25.9 Km/h
Dew point 10 °C
Umidità 100 %
Visibilità 19 Km
Il sole sorge alle ore 06:13
Il sole tramonta alle ore 20:19
| Data e Ora | Cielo e Fenomeni | T °C | DP °C | Um. % | Pres. hPa | Vis. km | Vento km/h | |
|---|---|---|---|---|---|---|---|---|
| Oggi h: 21:00 | Coperto | 10 | 10 | 100 | 1010 | 19 | E 25.9 | |
| Oggi h: 20:00 | Coperto | 10 | 9 | 93 | 1010 | 24 | E/SE 29.6 | |
| Oggi h: 19:00 | Coperto | 10 | 9 | 93 | 1011 | 24 | E/SE 27.8 | |
| Oggi h: 18:00 | Coperto | 10 | 9 | 93 | 1011 | 24 | E 31.5 | |
| Oggi h: 17:00 | Molto Nuvoloso | 12 | 10 | 87 | 1011 | 24 | E/SE 25.9 | |
| Oggi h: 16:42 | Molto Nuvoloso | 12 | 10 | 87 | 1011 | 24 | E/SE 33.3 | |
| Oggi h: 16:02 | Molto Nuvoloso | 14 | 10 | 76 | 1011 | 24 | E/SE 33.3 | |
| Oggi h: 16:00 | Molto Nuvoloso | 14 | 10 | 76 | 1011 | 24 | E/SE 35.2 | |
| Oggi h: 15:00 | Molto Nuvoloso | 15 | 11 | 76 | 1011 | 24 | E/SE 31.5 | |
| Oggi h: 14:00 | Nuvoloso | 17 | 11 | 67 | 1012 | 24 | E 27.8 | |
| Oggi h: 13:00 | Nuvoloso | 17 | 11 | 67 | 1012 | 24 | E/SE 25.9 | |
| Oggi h: 12:00 | Poco Nuvoloso | 17 | 10 | 63 | 1013 | 24 | SE 29.6 | |
| Oggi h: 11:00 | Poco Nuvoloso | 17 | 10 | 63 | 1013 | 24 | SE 25.9 | |
| Oggi h: 10:00 | Poco Nuvoloso | 15 | 11 | 76 | 1014 | 24 | E/SE 20.3 | |
| Oggi h: 09:04 | Nuvoloso | 12 | 12 | 100 | 1014 | 24 | E/SE 16.7 | |
| Oggi h: 09:00 | Molto Nuvoloso | 11 | 11 | 100 | 1014 | 11 | E/SE 16.7 | |
| Oggi h: 08:57 | Foschia | 11 | 11 | 100 | 1014 | 8 | E/SE 16.7 | |
| Oggi h: 08:27 | Foschia | 10 | 10 | 100 | 1014 | 2 | E/SE 13 | |
| Oggi h: 08:00 | Foschia | 10 | 10 | 100 | 1014 | 2 | SE 14.8 | |
| Oggi h: 07:58 | Foschia | 10 | 10 | 100 | 1014 | 2 | SE 14.8 | |
| Oggi h: 07:29 | Foschia | 10 | 10 | 100 | 1014 | 5 | SE 14.8 | |
| Oggi h: 07:21 | Foschia | 9 | 9 | 100 | 1014 | 3 | SE 14.8 | |
| Oggi h: 07:00 | Nuvoloso | 9 | 9 | 100 | 1014 | 10 | SE 16.7 | |
| Oggi h: 06:57 | Nuvoloso | 9 | 9 | 100 | 1014 | 24 | SE 14.8 | |
| Oggi h: 06:00 | Nuvoloso | 9 | 9 | 100 | 1014 | 24 | E/SE 16.7 | |
| Oggi h: 05:00 | Nuvoloso | 9 | 9 | 100 | 1015 | 24 | E/SE 13 | |
| Oggi h: 04:00 | Molto Nuvoloso | 10 | 8 | 87 | 1015 | 24 | S 13 | |
| Oggi h: 03:00 | Poco Nuvoloso | 9 | 8 | 93 | 1015 | 24 | S/SE 14.8 | |
| Oggi h: 02:00 | Poco Nuvoloso | 10 | 8 | 87 | 1015 | 24 | S/SE 14.8 | |
| Oggi h: 01:00 | Nuvoloso | 12 | 8 | 76 | 1015 | 24 | S/SE 18.5 | |
| Oggi h: 00:00 | Nuvoloso | 13 | 9 | 76 | 1015 | 24 | S/SE 18.5 | |
| Ieri h: 23:00 | Nuvoloso | 14 | 10 | 76 | 1015 | 24 | S/SE 16.7 | |
| Ieri h: 22:00 | Molto Nuvoloso | 14 | 10 | 76 | 1016 | 24 | S/SE 18.5 | |



